Time;durP1;ratioP1;P1;durP2;ratioP2;P2;SDS_P1;SDS_P2;PMS_P1;PMS_P2;Temp;Humidity;BMP_temperature;BMP_pressure;BME280_temperature;BME280_humidity;BME280_pressure;Samples;Min_cycle;Max_cycle;Signal;HPM_P1;HPM_P2
2021/03/29 00:03:28;;;;;;;7.50;3.08;;;;;;;4.19;42.99;100265.91;10626473;28;20467;-53
2021/03/29 00:08:31;;;;;;;7.32;3.35;;;;;;;4.09;42.83;100260.34;10625318;27;20050;-52
2021/03/29 00:13:34;;;;;;;9.40;3.67;;;;;;;4.07;42.72;100265.63;10631199;27;20483;-55
2021/03/29 00:18:36;;;;;;;10.35;4.50;;;;;;;3.99;43.11;100270.34;10634346;27;20494;-56
2021/03/29 00:23:38;;;;;;;12.68;3.92;;;;;;;3.88;43.13;100270.91;10632942;27;20062;-52
2021/03/29 00:28:41;;;;;;;10.82;4.45;;;;;;;3.77;43.73;100274.91;10633125;27;20103;-53
2021/03/29 00:33:44;;;;;;;8.20;3.85;;;;;;;3.70;43.55;100279.56;10631865;27;20046;-52
2021/03/29 00:38:48;;;;;;;9.73;3.90;;;;;;;3.72;43.38;100295.94;10589273;27;20152;-53
2021/03/29 00:43:51;;;;;;;9.35;4.75;;;;;;;3.68;43.07;100303.03;10590446;28;20455;-53
2021/03/29 00:48:54;;;;;;;10.50;4.63;;;;;;;3.58;43.34;100299.19;10622766;27;20058;-54
2021/03/29 00:53:58;;;;;;;11.57;4.43;;;;;;;3.51;43.76;100291.72;10632864;27;20126;-53
2021/03/29 00:59:02;;;;;;;13.32;5.40;;;;;;;3.41;43.51;100296.53;10632055;27;20039;-52
2021/03/29 01:04:04;;;;;;;;;;;;;;;3.41;42.98;100293.91;10632884;27;20062;-53
2021/03/29 01:09:09;;;;;;;9.88;4.22;;;;;;;3.34;43.12;100297.72;10633261;27;19991;-60
2021/03/29 01:14:16;;;;;;;10.23;4.70;;;;;;;3.21;43.69;100298.28;10638500;27;20047;-52
2021/03/29 01:19:27;;;;;;;11.50;4.57;;;;;;;3.17;44.25;100296.75;10632317;27;20039;-52
2021/03/29 01:24:40;;;;;;;12.63;4.80;;;;;;;3.12;44.58;100300.47;10630664;27;20047;-52
2021/03/29 01:29:43;;;;;;;10.38;4.10;;;;;;;3.06;44.55;100306.78;10630581;27;20046;-53
2021/03/29 01:34:47;;;;;;;10.07;4.57;;;;;;;2.99;44.70;100311.41;10630247;27;20061;-53
2021/03/29 01:39:50;;;;;;;11.30;4.50;;;;;;;2.98;44.39;100314.03;10630065;27;20387;-53
2021/03/29 01:44:53;;;;;;;9.77;3.58;;;;;;;2.93;44.19;100318.63;10630365;27;20039;-52
2021/03/29 01:49:55;;;;;;;8.70;3.13;;;;;;;2.92;43.70;100327.28;10630814;27;20046;-51
2021/03/29 01:54:57;;;;;;;10.65;3.83;;;;;;;2.89;43.82;100324.84;10630537;27;20391;-54
2021/03/29 02:00:00;;;;;;;6.57;2.92;;;;;;;2.85;43.34;100331.09;10629546;27;20051;-52
2021/03/29 02:05:05;;;;;;;7.43;3.38;;;;;;;2.83;43.19;100338.09;10628736;27;20043;-53
2021/03/29 02:10:12;;;;;;;6.88;2.95;;;;;;;2.80;43.25;100344.25;10628937;27;20053;-51
2021/03/29 02:15:18;;;;;;;7.18;3.30;;;;;;;2.76;42.90;100348.72;10628182;27;20039;-54
2021/03/29 02:20:24;;;;;;;9.73;3.60;;;;;;;2.69;43.22;100347.31;10631431;27;20047;-51
2021/03/29 02:25:29;;;;;;;8.00;3.30;;;;;;;2.65;43.06;100363.94;10627937;27;20055;-51
2021/03/29 02:30:35;;;;;;;9.93;4.05;;;;;;;2.61;42.78;100357.16;10629362;27;20054;-53
2021/03/29 02:35:38;;;;;;;8.57;3.60;;;;;;;2.62;42.90;100361.47;10627319;27;20190;-53
2021/03/29 02:40:41;;;;;;;9.30;3.53;;;;;;;2.61;42.18;100357.16;10628265;27;20501;-55
2021/03/29 02:45:49;;;;;;;8.80;3.50;;;;;;;2.65;42.01;100369.13;10627328;27;20042;-52
2021/03/29 02:50:53;;;;;;;10.02;3.28;;;;;;;2.57;42.34;100378.13;10627271;27;20495;-53
2021/03/29 02:55:57;;;;;;;10.63;4.53;;;;;;;2.54;41.99;100368.72;10628069;27;20146;-52
2021/03/29 03:00:59;;;;;;;9.43;4.70;;;;;;;2.54;41.93;100371.31;10616328;27;20511;-51
2021/03/29 03:06:02;;;;;;;8.32;3.92;;;;;;;2.54;41.73;100377.34;10584262;28;20482;-51
2021/03/29 03:11:05;;;;;;;8.23;3.50;;;;;;;2.55;41.41;100383.38;10584229;28;20095;-51
2021/03/29 03:16:07;;;;;;;11.90;4.57;;;;;;;2.57;41.68;100389.34;10583641;28;20563;-52
2021/03/29 03:21:14;;;;;;;10.65;3.33;;;;;;;2.60;41.25;100397.03;10584144;28;20462;-52
2021/03/29 03:26:16;;;;;;;10.88;4.80;;;;;;;2.96;41.41;100397.25;10584313;28;20055;-52
2021/03/29 03:31:19;;;;;;;9.52;4.22;;;;;;;4.23;40.86;100403.63;10583206;28;20047;-52
2021/03/29 03:36:23;;;;;;;13.10;4.22;;;;;;;5.64;38.93;100404.31;10587203;28;20044;-52
2021/03/29 03:41:25;;;;;;;;;;;;;;;6.85;38.03;100405.38;10587031;28;20058;-54
2021/03/29 03:46:31;;;;;;;9.43;3.88;;;;;;;8.20;35.72;100407.59;10584723;28;20279;-54
2021/03/29 03:51:33;;;;;;;9.57;3.80;;;;;;;9.71;34.17;100408.03;10591957;28;20051;-55
2021/03/29 03:56:35;;;;;;;7.18;3.42;;;;;;;11.34;32.40;100405.63;10601288;28;20065;-54
2021/03/29 04:01:50;;;;;;;13.10;3.17;;;;;;;12.50;30.32;100421.06;10589896;28;20043;-54
2021/03/29 04:06:51;;;;;;;7.65;3.60;;;;;;;13.42;30.02;100426.59;10589828;28;20075;-53
2021/03/29 04:11:53;;;;;;;8.57;3.08;;;;;;;14.65;28.43;100419.28;10591741;28;20135;-52
2021/03/29 04:16:56;;;;;;;8.55;3.17;;;;;;;15.80;26.66;100413.88;10598030;28;20071;-54
2021/03/29 04:21:58;;;;;;;9.07;3.45;;;;;;;17.19;25.77;100424.00;10593162;28;20039;-55
2021/03/29 04:26:59;;;;;;;10.32;4.07;;;;;;;19.14;23.98;100419.44;10589905;28;20491;-54
2021/03/29 04:32:02;;;;;;;11.38;4.03;;;;;;;20.66;22.07;100432.50;10589661;28;20066;-54
2021/03/29 04:37:04;;;;;;;8.20;3.95;;;;;;;21.90;20.81;100432.13;10585098;28;20043;-55
2021/03/29 04:42:07;;;;;;;7.57;2.90;;;;;;;22.60;19.83;100433.31;10593323;28;20048;-56
2021/03/29 04:47:09;;;;;;;8.48;3.83;;;;;;;23.22;18.58;100429.97;10592256;28;20103;-55
2021/03/29 04:52:11;;;;;;;13.40;3.70;;;;;;;23.65;18.18;100430.66;10588938;28;20062;-53
2021/03/29 04:57:12;;;;;;;10.73;3.38;;;;;;;25.14;16.98;100432.50;10594098;28;20077;-55
2021/03/29 05:02:15;;;;;;;9.30;3.90;;;;;;;26.41;15.80;100439.13;10589552;28;20047;-55
2021/03/29 05:07:17;;;;;;;8.77;4.07;;;;;;;27.16;15.10;100434.91;10586756;28;20050;-54
2021/03/29 05:12:22;;;;;;;14.07;4.47;;;;;;;28.36;14.10;100434.38;10588343;28;20063;-54
2021/03/29 05:17:24;;;;;;;9.32;3.38;;;;;;;29.48;12.85;100437.13;10588359;28;20116;-55
2021/03/29 05:22:26;;;;;;;12.25;3.80;;;;;;;30.52;12.01;100451.69;10588158;28;20047;-56
2021/03/29 05:27:28;;;;;;;9.88;3.55;;;;;;;31.23;11.42;100443.91;10589867;28;20056;-55
2021/03/29 05:32:31;;;;;;;7.43;3.40;;;;;;;32.26;10.33;100444.97;10587417;28;20051;-56
2021/03/29 05:37:32;;;;;;;8.63;3.95;;;;;;;32.67;9.63;100456.31;10588116;28;20040;-54
2021/03/29 05:42:35;;;;;;;9.75;2.67;;;;;;;33.20;8.72;100451.00;10608179;28;20043;-54
2021/03/29 05:47:38;;;;;;;6.70;2.58;;;;;;;34.02;8.51;100459.59;10588311;28;20051;-55
2021/03/29 05:52:40;;;;;;;7.55;2.95;;;;;;;35.20;7.54;100457.88;10590024;28;20107;-55
2021/03/29 05:57:54;;;;;;;5.68;2.47;;;;;;;34.98;6.77;100460.88;10617259;28;20040;-57
2021/03/29 06:03:24;;;;;;;7.72;2.50;;;;;;;34.82;6.97;100466.34;10586272;28;20062;-55
2021/03/29 06:08:26;;;;;;;5.60;2.40;;;;;;;35.89;6.52;100465.31;10588079;28;20052;-55
2021/03/29 06:13:30;;;;;;;8.48;2.45;;;;;;;36.73;5.95;100468.09;10591530;28;20115;-55
2021/03/29 06:18:33;;;;;;;5.93;2.25;;;;;;;37.54;5.64;100476.72;10589567;28;20044;-56
2021/03/29 06:23:37;;;;;;;9.50;2.33;;;;;;;37.75;5.03;100478.09;10589825;28;20040;-55
2021/03/29 06:28:38;;;;;;;6.80;2.08;;;;;;;37.90;4.94;100493.56;10607066;28;20089;-56
2021/03/29 06:33:46;;;;;;;6.95;2.40;;;;;;;38.27;4.45;100482.91;10591031;28;20087;-56
2021/03/29 06:38:48;;;;;;;5.78;2.00;;;;;;;38.13;4.52;100489.16;10585551;28;20054;-54
2021/03/29 06:43:50;;;;;;;6.30;1.88;;;;;;;38.28;4.51;100490.88;10585643;28;20476;-54
2021/03/29 06:48:54;;;;;;;7.65;2.30;;;;;;;37.81;3.96;100489.84;10585288;28;20175;-55
2021/03/29 06:53:58;;;;;;;7.97;2.05;;;;;;;38.26;4.04;100487.59;10585314;28;20053;-54
2021/03/29 06:59:14;;;;;;;9.00;2.47;;;;;;;40.30;3.21;100501.53;10584530;28;20077;-55
2021/03/29 07:04:20;;;;;;;6.60;1.80;;;;;;;39.50;2.94;100503.72;10584054;28;20048;-56
2021/03/29 07:09:21;;;;;;;7.22;2.08;;;;;;;37.36;3.14;100504.84;10583219;28;20380;-56
2021/03/29 07:14:23;;;;;;;5.38;1.67;;;;;;;38.52;2.86;100514.69;10583693;28;20429;-54
2021/03/29 07:19:28;;;;;;;7.78;2.28;;;;;;;39.22;3.04;100517.41;10584636;28;20056;-57
2021/03/29 07:24:30;;;;;;;10.32;2.08;;;;;;;40.80;2.69;100507.81;10583577;28;20079;-57
2021/03/29 07:29:37;;;;;;;5.55;1.85;;;;;;;41.74;1.88;100507.81;10584084;28;20052;-54
2021/03/29 07:34:47;;;;;;;4.30;1.60;;;;;;;39.81;1.57;100523.22;10582274;28;20155;-55
2021/03/29 07:39:49;;;;;;;3.00;1.27;;;;;;;38.54;2.06;100535.28;10582089;28;20049;-54
2021/03/29 07:44:51;;;;;;;4.13;1.50;;;;;;;38.06;2.46;100518.06;10582366;28;20044;-54
2021/03/29 07:49:54;;;;;;;4.55;1.23;;;;;;;37.85;2.10;100521.06;10594222;28;20142;-54
2021/03/29 07:54:57;;;;;;;3.42;1.23;;;;;;;38.17;2.00;100539.59;10596169;28;20096;-55
2021/03/29 07:59:59;;;;;;;4.00;1.20;;;;;;;37.91;1.74;100541.84;10588789;28;20074;-55
2021/03/29 08:05:04;;;;;;;5.97;1.30;;;;;;;36.48;2.24;100523.84;10583085;28;20480;-56
2021/03/29 08:10:08;;;;;;;3.97;1.30;;;;;;;36.51;2.14;100522.50;10601283;28;20053;-55
2021/03/29 08:15:11;;;;;;;3.92;1.30;;;;;;;37.53;2.32;100519.78;10591145;28;20396;-66
2021/03/29 08:20:17;;;;;;;6.15;1.40;;;;;;;39.13;1.69;100522.81;10587967;28;20052;-55
2021/03/29 08:25:29;;;;;;;4.32;1.40;;;;;;;40.76;1.38;100537.13;10582932;28;20059;-54
2021/03/29 08:30:41;;;;;;;4.38;1.40;;;;;;;41.32;1.18;100523.84;10585722;28;20040;-54
2021/03/29 08:35:44;;;;;;;4.15;1.23;;;;;;;41.21;1.33;100542.63;10595649;28;20082;-54
2021/03/29 08:40:46;;;;;;;5.07;1.20;;;;;;;40.52;1.09;100553.09;10606783;27;20078;-55
2021/03/29 08:45:49;;;;;;;3.40;1.20;;;;;;;38.48;1.64;100550.19;10590126;28;20051;-54
2021/03/29 08:50:52;;;;;;;6.03;1.55;;;;;;;39.66;1.48;100546.34;10590600;28;20054;-55
2021/03/29 08:55:53;;;;;;;4.80;1.90;;;;;;;40.49;1.51;100546.28;10594730;28;20069;-56
2021/03/29 09:00:55;;;;;;;6.13;1.80;;;;;;;41.40;1.38;100554.25;10591483;28;20055;-55
2021/03/29 09:06:13;;;;;;;4.95;1.52;;;;;;;42.38;0.92;100549.56;10590531;28;20105;-55
2021/03/29 09:11:15;;;;;;;9.50;1.70;;;;;;;42.54;0.97;100547.94;10589425;28;20051;-55
2021/03/29 09:16:17;;;;;;;4.28;1.77;;;;;;;42.55;1.02;100548.75;10590826;28;20050;-56
2021/03/29 09:21:25;;;;;;;5.05;1.65;;;;;;;42.07;0.87;100550.47;10589718;28;20054;-55
2021/03/29 09:26:27;;;;;;;4.68;1.30;;;;;;;41.39;1.20;100558.16;10597939;28;20496;-56
2021/03/29 09:31:32;;;;;;;4.28;1.30;;;;;;;40.39;0.99;100552.03;10590253;28;20051;-54
2021/03/29 09:36:35;;;;;;;4.70;1.63;;;;;;;40.04;1.12;100557.97;10587680;28;20047;-55
2021/03/29 09:41:37;;;;;;;4.97;1.55;;;;;;;38.91;1.65;100564.66;10588236;28;20048;-60
2021/03/29 09:46:39;;;;;;;5.43;1.58;;;;;;;38.39;1.63;100560.22;10589868;28;20121;-54
2021/03/29 09:51:44;;;;;;;5.43;1.80;;;;;;;36.55;2.30;100554.53;10590225;28;20116;-57
2021/03/29 09:56:46;;;;;;;6.20;1.60;;;;;;;34.30;3.06;100553.84;10589668;28;20059;-58
2021/03/29 10:01:47;;;;;;;5.90;1.88;;;;;;;27.61;5.31;100564.28;10598294;28;20107;-55
2021/03/29 10:06:55;;;;;;;5.17;1.57;;;;;;;23.57;6.71;100569.53;10591342;28;20108;-53
2021/03/29 10:11:57;;;;;;;4.30;1.85;;;;;;;21.34;7.87;100577.81;10587412;28;20293;-54
2021/03/29 10:17:00;;;;;;;3.87;1.83;;;;;;;19.03;9.32;100585.00;10586672;28;20052;-54
2021/03/29 10:22:08;;;;;;;5.03;1.47;;;;;;;17.31;10.25;100578.72;10586048;28;20047;-55
2021/03/29 10:27:10;;;;;;;3.97;1.50;;;;;;;16.18;11.10;100581.75;10589414;28;20535;-55
2021/03/29 10:32:14;;;;;;;4.68;1.75;;;;;;;15.27;12.17;100586.63;10594277;28;20047;-55
2021/03/29 10:37:22;;;;;;;4.90;1.60;;;;;;;14.49;12.63;100591.75;10599498;28;20496;-54
2021/03/29 10:42:25;;;;;;;5.82;1.80;;;;;;;14.05;13.12;100596.47;10589935;28;20058;-56
2021/03/29 10:47:27;;;;;;;5.18;2.22;;;;;;;13.52;13.38;100593.91;10605913;27;20051;-59
2021/03/29 10:52:30;;;;;;;4.53;1.50;;;;;;;13.19;14.24;100594.84;10586562;28;20126;-56
2021/03/29 10:57:31;;;;;;;7.28;1.70;;;;;;;12.79;14.67;100588.38;10587945;28;20060;-53
2021/03/29 11:02:34;;;;;;;5.57;1.95;;;;;;;12.73;14.67;100593.31;10586537;28;20575;-55
2021/03/29 11:07:36;;;;;;;4.68;1.63;;;;;;;12.54;14.68;100588.66;10584521;28;20058;-53
2021/03/29 11:12:38;;;;;;;4.57;1.85;;;;;;;12.38;15.06;100589.03;10584595;28;20067;-53
2021/03/29 11:17:40;;;;;;;6.95;2.17;;;;;;;12.54;15.05;100601.84;10584098;28;20043;-55
2021/03/29 11:22:43;;;;;;;4.00;1.40;;;;;;;12.43;15.07;100585.06;10582607;28;20051;-55
2021/03/29 11:27:45;;;;;;;4.97;1.50;;;;;;;12.21;15.45;100592.97;10582573;28;20095;-53
2021/03/29 11:32:47;;;;;;;5.90;1.52;;;;;;;12.09;15.32;100599.19;10583654;28;20482;-53
2021/03/29 11:37:49;;;;;;;5.10;1.40;;;;;;;12.02;15.59;100593.56;10583620;28;20043;-54
2021/03/29 11:42:51;;;;;;;4.22;1.40;;;;;;;12.07;15.59;100598.47;10583014;28;20054;-54
2021/03/29 11:47:53;;;;;;;6.03;1.40;;;;;;;11.95;15.58;100592.38;10583012;28;20058;-55
2021/03/29 11:52:55;;;;;;;4.07;1.38;;;;;;;11.88;15.76;100581.44;10600229;28;20048;-54
2021/03/29 11:57:57;;;;;;;4.28;1.60;;;;;;;11.70;15.83;100588.94;10584405;28;20484;-55
2021/03/29 12:03:09;;;;;;;5.60;1.38;;;;;;;11.66;15.84;100586.63;10582703;28;20065;-56
2021/03/29 12:08:17;;;;;;;7.03;2.10;;;;;;;11.57;16.24;100579.44;10587076;28;20123;-56
2021/03/29 12:13:19;;;;;;;6.10;2.20;;;;;;;11.49;16.27;100575.59;10593000;28;20065;-53
2021/03/29 12:18:31;;;;;;;4.80;1.40;;;;;;;11.53;16.35;100569.13;10591967;28;20495;-57
2021/03/29 12:23:35;;;;;;;4.78;1.50;;;;;;;11.42;16.53;100570.88;10596303;28;20170;-52
2021/03/29 12:28:37;;;;;;;;;;;;;;;11.55;16.36;100569.03;10590817;28;20044;-59
2021/03/29 12:33:40;;;;;;;5.43;2.00;;;;;;;11.54;16.31;100575.22;10589887;28;20026;-53
2021/03/29 12:38:46;;;;;;;6.03;1.50;;;;;;;11.43;16.51;100570.78;10592491;28;20039;-55
2021/03/29 12:43:53;;;;;;;6.35;1.70;;;;;;;11.39;16.74;100574.63;10593612;28;20058;-55
2021/03/29 12:48:55;;;;;;;5.97;2.13;;;;;;;11.32;16.82;100573.38;10591882;28;20051;-53
2021/03/29 12:54:08;;;;;;;5.18;1.92;;;;;;;11.28;17.14;100569.28;10607380;27;20138;-53
2021/03/29 12:59:10;;;;;;;5.07;1.90;;;;;;;11.20;17.28;100563.75;10590369;28;20048;-56
2021/03/29 13:04:15;;;;;;;4.57;1.90;;;;;;;11.10;17.28;100565.38;10606003;28;20073;-53
2021/03/29 13:09:27;;;;;;;8.38;2.03;;;;;;;11.07;17.50;100563.81;10590171;28;20039;-53
2021/03/29 13:14:38;;;;;;;5.35;1.65;;;;;;;11.13;17.43;100565.16;10590764;28;20075;-53
2021/03/29 13:19:39;;;;;;;8.70;2.20;;;;;;;11.07;17.57;100556.75;10596490;28;20076;-54
2021/03/29 13:24:42;;;;;;;7.40;2.20;;;;;;;11.10;17.56;100552.22;10626200;27;20054;-56
2021/03/29 13:29:46;;;;;;;6.30;2.30;;;;;;;11.04;17.50;100556.97;10632009;27;20047;-59
2021/03/29 13:34:48;;;;;;;6.97;2.00;;;;;;;10.99;17.79;100567.03;10632253;27;20053;-55
2021/03/29 13:39:52;;;;;;;4.40;1.60;;;;;;;10.94;17.53;100556.00;10631259;27;20061;-54
2021/03/29 13:44:54;;;;;;;4.70;1.70;;;;;;;10.87;17.91;100565.28;10631329;27;20485;-53
2021/03/29 13:49:57;;;;;;;6.25;1.70;;;;;;;10.80;18.00;100567.50;10616804;27;20055;-53
2021/03/29 13:55:00;;;;;;;7.57;2.22;;;;;;;10.74;17.87;100569.75;10588288;28;20071;-54
2021/03/29 14:00:02;;;;;;;9.03;2.73;;;;;;;10.73;17.75;100565.44;10587389;28;20051;-55
2021/03/29 14:05:06;;;;;;;;;;;;;;;10.82;17.59;100554.25;10588196;28;20325;-53
2021/03/29 14:10:11;;;;;;;5.53;1.75;;;;;;;10.74;17.81;100546.91;10589831;28;19924;-52
2021/03/29 14:15:13;;;;;;;4.18;1.40;;;;;;;10.59;18.27;100559.38;10586629;28;20043;-53
2021/03/29 14:20:16;;;;;;;10.35;2.17;;;;;;;10.54;18.18;100558.88;10586722;28;20051;-55
2021/03/29 14:25:20;;;;;;;7.55;2.42;;;;;;;10.55;18.74;100557.91;10594256;28;20082;-57
2021/03/29 14:30:23;;;;;;;7.30;2.55;;;;;;;10.49;18.67;100553.09;10585595;28;20058;-55
2021/03/29 14:35:32;;;;;;;6.57;2.17;;;;;;;10.42;18.91;100559.75;10587758;28;20051;-53
2021/03/29 14:40:49;;;;;;;7.30;2.50;;;;;;;10.45;19.28;100545.53;10585613;28;20039;-52
2021/03/29 14:45:51;;;;;;;7.35;3.05;;;;;;;10.53;19.18;100562.47;10604361;27;20111;-53
2021/03/29 14:50:53;;;;;;;7.32;2.72;;;;;;;10.48;19.81;100553.22;10628462;27;20043;-53
2021/03/29 14:55:55;;;;;;;9.60;2.40;;;;;;;10.47;19.62;100554.19;10628180;27;20043;-55
2021/03/29 15:00:57;;;;;;;7.68;2.45;;;;;;;10.42;19.69;100559.75;10628588;27;20423;-52
2021/03/29 15:06:17;;;;;;;12.95;2.50;;;;;;;10.33;19.64;100557.75;10627839;27;20043;-53
2021/03/29 15:11:20;;;;;;;9.05;2.97;;;;;;;10.18;20.02;100557.00;10627284;27;20043;-55
2021/03/29 15:16:22;;;;;;;8.57;2.45;;;;;;;9.98;20.20;100557.56;10627214;27;20054;-52
2021/03/29 15:21:24;;;;;;;13.77;3.50;;;;;;;9.76;20.62;100553.81;10626985;27;20058;-53
2021/03/29 15:26:26;;;;;;;10.88;3.35;;;;;;;9.67;20.62;100555.25;10628063;27;20070;-54
2021/03/29 15:31:28;;;;;;;5.43;2.40;;;;;;;9.58;20.75;100560.28;10628283;27;20049;-52
2021/03/29 15:36:30;;;;;;;11.77;3.80;;;;;;;9.40;21.25;100554.50;10632990;28;20050;-52
2021/03/29 15:41:32;;;;;;;15.00;3.75;;;;;;;9.23;21.49;100555.59;10629628;27;20047;-53
2021/03/29 15:46:35;;;;;;;8.43;3.15;;;;;;;9.14;21.58;100559.69;10635676;27;20038;-56
2021/03/29 15:51:36;;;;;;;9.45;3.38;;;;;;;9.11;21.71;100569.50;10638399;27;20051;-54
2021/03/29 15:56:49;;;;;;;13.90;4.13;;;;;;;9.01;21.88;100571.91;10636413;27;20047;-51
2021/03/29 16:01:54;;;;;;;6.78;3.20;;;;;;;8.87;22.19;100582.47;10632475;27;20039;-51
2021/03/29 16:06:55;;;;;;;7.10;2.72;;;;;;;8.70;22.40;100589.59;10633715;27;20062;-54
2021/03/29 16:11:58;;;;;;;8.15;2.90;;;;;;;8.55;22.78;100584.47;10640175;27;20039;-63
2021/03/29 16:17:00;;;;;;;8.27;2.47;;;;;;;8.38;23.12;100593.38;10640100;27;20468;-61
2021/03/29 16:22:02;;;;;;;7.57;2.63;;;;;;;8.24;23.24;100592.41;10645315;27;20119;-52
2021/03/29 16:27:05;;;;;;;9.32;2.90;;;;;;;8.10;23.50;100589.81;10643052;27;20066;-51
2021/03/29 16:32:09;;;;;;;11.30;2.72;;;;;;;7.96;23.80;100593.25;10616244;27;20142;-52
2021/03/29 16:37:10;;;;;;;10.55;2.92;;;;;;;7.83;23.85;100587.09;10636698;27;20457;-59
2021/03/29 16:42:13;;;;;;;9.43;3.30;;;;;;;7.72;24.24;100595.56;10639881;27;20128;-58
2021/03/29 16:47:15;;;;;;;11.20;3.30;;;;;;;7.60;24.61;100601.50;10639813;27;20138;-54
2021/03/29 16:52:18;;;;;;;12.65;3.90;;;;;;;7.44;24.93;100600.72;10633000;27;20051;-53
2021/03/29 16:57:20;;;;;;;14.55;5.35;;;;;;;7.33;25.39;100599.59;10634385;27;20108;-53
2021/03/29 17:02:22;;;;;;;15.23;4.85;;;;;;;7.21;25.50;100594.22;10633986;27;20054;-54
2021/03/29 17:07:24;;;;;;;11.48;4.30;;;;;;;7.10;25.71;100600.03;10632311;27;20486;-52
2021/03/29 17:12:26;;;;;;;14.23;5.40;;;;;;;7.02;25.63;100597.88;10631956;27;20103;-52
2021/03/29 17:17:28;;;;;;;14.10;4.47;;;;;;;6.94;25.79;100614.91;10607479;27;20060;-51
2021/03/29 17:22:30;;;;;;;11.52;4.30;;;;;;;6.85;25.99;100614.47;10589377;28;20051;-52
2021/03/29 17:27:32;;;;;;;14.35;5.38;;;;;;;6.76;26.20;100612.38;10592560;28;20155;-57
2021/03/29 17:32:34;;;;;;;10.80;4.22;;;;;;;6.64;26.56;100631.31;10592911;28;20116;-54
2021/03/29 17:37:36;;;;;;;12.50;3.83;;;;;;;6.54;26.58;100637.97;10590325;28;20082;-51
2021/03/29 17:42:39;;;;;;;9.30;2.80;;;;;;;6.44;27.01;100635.84;10589316;28;20070;-51
2021/03/29 17:47:40;;;;;;;11.98;3.53;;;;;;;6.38;26.75;100646.63;10588017;28;20055;-51
2021/03/29 17:52:42;;;;;;;14.23;3.88;;;;;;;6.33;26.73;100653.84;10590010;28;20058;-51
2021/03/29 17:57:44;;;;;;;16.40;4.30;;;;;;;6.26;26.80;100647.28;10588087;28;20051;-53
2021/03/29 18:02:46;;;;;;;14.60;3.72;;;;;;;6.23;26.76;100650.03;10589098;28;20059;-52
2021/03/29 18:07:48;;;;;;;11.68;4.03;;;;;;;6.16;26.83;100646.91;10587892;28;20395;-51
2021/03/29 18:12:50;;;;;;;18.42;3.90;;;;;;;6.12;26.82;100649.75;10590061;28;20051;-58
2021/03/29 18:17:52;;;;;;;12.63;3.55;;;;;;;6.09;26.81;100660.34;10587646;28;20130;-53
2021/03/29 18:22:55;;;;;;;7.78;3.10;;;;;;;5.99;26.50;100660.81;10587151;28;20458;-54
2021/03/29 18:27:59;;;;;;;6.35;3.03;;;;;;;5.88;27.01;100657.88;10586188;28;20496;-51
2021/03/29 18:33:00;;;;;;;;;;;;;;;5.90;26.77;100658.63;10587020;28;20397;-52
2021/03/29 18:38:02;;;;;;;9.10;3.90;;;;;;;5.80;26.82;100659.19;10587055;28;19966;-53
2021/03/29 18:43:05;;;;;;;5.28;2.67;;;;;;;5.70;27.06;100653.59;10586264;28;20141;-53
2021/03/29 18:48:07;;;;;;;9.05;2.70;;;;;;;5.63;27.21;100657.41;10585739;28;20054;-53
2021/03/29 18:53:08;;;;;;;7.93;2.90;;;;;;;5.57;27.38;100662.91;10592521;27;20044;-51
2021/03/29 18:58:12;;;;;;;13.43;3.38;;;;;;;5.49;27.84;100665.91;10587466;28;20047;-53
2021/03/29 19:03:13;;;;;;;10.02;3.10;;;;;;;5.42;28.17;100673.19;10584398;28;20043;-52
2021/03/29 19:08:15;;;;;;;11.63;3.28;;;;;;;5.32;28.28;100675.38;10584962;28;20051;-50
2021/03/29 19:13:19;;;;;;;13.93;4.18;;;;;;;5.29;28.37;100666.88;10585675;28;20105;-53
2021/03/29 19:18:20;;;;;;;10.45;3.05;;;;;;;5.24;28.72;100671.47;10584463;28;20134;-52
2021/03/29 19:23:22;;;;;;;11.88;3.17;;;;;;;5.18;29.03;100677.81;10585888;28;20043;-57
2021/03/29 19:28:26;;;;;;;7.93;2.95;;;;;;;5.11;29.40;100671.22;10584092;28;20062;-51
2021/03/29 19:33:28;;;;;;;;;;;;;;;5.14;29.64;100664.97;10587019;28;20058;-51
2021/03/29 19:38:32;;;;;;;8.90;3.13;;;;;;;5.04;29.63;100670.63;10588279;28;20279;-53
2021/03/29 19:43:35;;;;;;;13.55;3.65;;;;;;;4.96;29.68;100667.56;10588044;28;20051;-53
2021/03/29 19:48:37;;;;;;;10.25;3.35;;;;;;;4.90;30.73;100675.66;10583421;28;20044;-58
2021/03/29 19:53:38;;;;;;;12.50;4.25;;;;;;;4.90;30.27;100670.44;10589433;28;20051;-51
2021/03/29 19:58:41;;;;;;;13.57;4.45;;;;;;;4.92;30.31;100671.19;10585884;28;20108;-51
2021/03/29 20:03:45;;;;;;;7.93;3.88;;;;;;;4.88;30.88;100674.03;10582751;28;20062;-52
2021/03/29 20:08:50;;;;;;;;;;;;;;;4.89;30.73;100665.28;10586281;28;20056;-52
2021/03/29 20:13:52;;;;;;;17.98;4.70;;;;;;;4.77;30.66;100659.75;10585338;28;19980;-53
2021/03/29 20:18:54;;;;;;;8.32;4.10;;;;;;;4.68;31.72;100661.91;10584753;28;20054;-53
2021/03/29 20:23:56;;;;;;;11.05;4.15;;;;;;;4.59;32.13;100664.03;10584575;28;20082;-52
2021/03/29 20:28:58;;;;;;;10.82;4.45;;;;;;;4.55;32.22;100672.88;10586427;28;20039;-51
2021/03/29 20:34:02;;;;;;;19.35;5.22;;;;;;;4.50;31.89;100672.25;10590661;28;20058;-51
2021/03/29 20:39:04;;;;;;;12.77;4.95;;;;;;;4.48;31.78;100670.63;10592255;28;20040;-51
2021/03/29 20:44:08;;;;;;;16.90;5.60;;;;;;;4.41;31.93;100670.06;10591624;28;20566;-51
2021/03/29 20:49:10;;;;;;;14.07;5.00;;;;;;;4.32;32.13;100670.47;10590238;28;20134;-56
2021/03/29 20:54:12;;;;;;;16.00;5.90;;;;;;;4.28;31.91;100668.88;10591164;28;20055;-55
2021/03/29 20:59:14;;;;;;;12.60;5.35;;;;;;;4.23;32.20;100652.66;10590935;28;20047;-52
2021/03/29 21:04:16;;;;;;;16.63;5.45;;;;;;;4.15;32.37;100647.75;10590587;28;20067;-50
2021/03/29 21:09:20;;;;;;;14.68;5.65;;;;;;;4.06;32.66;100654.19;10589772;28;20044;-53
2021/03/29 21:14:22;;;;;;;15.93;5.97;;;;;;;4.04;32.47;100661.25;10592125;28;20169;-52
2021/03/29 21:19:42;;;;;;;22.98;5.93;;;;;;;3.99;32.14;100672.75;10589569;28;20433;-52
2021/03/29 21:25:03;;;;;;;19.52;5.45;;;;;;;3.97;31.86;100665.00;10590069;28;20051;-51
2021/03/29 21:30:08;;;;;;;11.90;5.03;;;;;;;3.93;31.69;100664.28;10592016;28;20444;-54
2021/03/29 21:35:12;;;;;;;12.80;4.68;;;;;;;3.89;31.57;100667.09;10592900;28;20079;-52
2021/03/29 21:40:16;;;;;;;12.15;4.47;;;;;;;3.85;31.21;100668.16;10595628;28;20424;-51
2021/03/29 21:45:19;;;;;;;10.75;4.25;;;;;;;3.84;31.54;100669.03;10588491;28;20048;-53
2021/03/29 21:50:21;;;;;;;11.43;4.60;;;;;;;3.79;31.07;100671.00;10592890;28;20133;-51
2021/03/29 21:55:23;;;;;;;16.52;5.43;;;;;;;3.71;31.66;100670.47;10588811;28;20051;-53
2021/03/29 22:00:27;;;;;;;12.98;5.30;;;;;;;3.64;32.36;100673.31;10589623;28;20488;-53
2021/03/29 22:05:32;;;;;;;13.68;5.80;;;;;;;3.60;32.39;100669.16;10593108;28;20396;-51
2021/03/29 22:10:35;;;;;;;15.65;5.35;;;;;;;3.57;32.63;100671.03;10587312;28;20096;-51
2021/03/29 22:15:38;;;;;;;11.63;4.40;;;;;;;3.54;32.42;100676.34;10588807;28;20075;-51
2021/03/29 22:20:40;;;;;;;9.95;4.53;;;;;;;3.50;32.44;100686.03;10587666;28;20077;-51
2021/03/29 22:25:45;;;;;;;15.93;4.97;;;;;;;3.48;32.69;100677.47;10586535;28;20132;-55
2021/03/29 22:30:52;;;;;;;9.15;4.07;;;;;;;3.45;32.43;100672.38;10587078;28;20448;-51
2021/03/29 22:36:05;;;;;;;10.10;4.25;;;;;;;3.41;32.67;100670.81;10587469;28;20043;-52
2021/03/29 22:41:25;;;;;;;9.45;4.18;;;;;;;3.38;32.71;100661.38;10587950;28;20116;-53
2021/03/29 22:46:27;;;;;;;8.98;3.60;;;;;;;3.36;32.36;100658.00;10588182;28;20518;-51
2021/03/29 22:51:29;;;;;;;11.30;4.88;;;;;;;3.32;32.88;100668.56;10587527;28;20100;-52
2021/03/29 22:56:31;;;;;;;10.75;4.32;;;;;;;3.27;33.49;100667.91;10585369;28;20043;-50
2021/03/29 23:01:36;;;;;;;8.02;4.43;;;;;;;3.25;33.93;100660.16;10587515;28;20055;-54
2021/03/29 23:06:38;;;;;;;11.02;3.90;;;;;;;3.22;34.14;100671.53;10587324;28;20047;-53
2021/03/29 23:11:40;;;;;;;11.65;4.90;;;;;;;3.19;34.39;100663.84;10587966;28;20051;-59
2021/03/29 23:16:42;;;;;;;8.48;3.97;;;;;;;3.16;34.32;100661.38;10589576;28;20393;-51
2021/03/29 23:21:44;;;;;;;12.27;3.83;;;;;;;3.13;34.74;100656.28;10586067;28;20044;-52
2021/03/29 23:26:46;;;;;;;9.13;3.92;;;;;;;3.11;35.02;100657.25;10584765;28;20520;-52